Hovedside
METAR-TAF:

METAR-TAF

Lufthavner :

Billund lufthavn

Billund, Danmark

breddegrad: 55-44N, lengdegrad: 009-10E, høyde over havet: 75 m

Gjeldene værobservasjon

Denne rapporten ble laget for 25 minutter siden, klokken 10:50 UTC
Vind 12 kt fra Vest-nordvest, skiftende mellom Vest-sørvest og Nordvest
Temperatur 16°C
Luftfuktighet 68%
Trykk 1015 hPa
Sikt 10 km eller mer

METAR: EKBI 191050Z AUTO 29012KT 250V320 9999 FEW021/// BKN042/// 16/10 Q1015

Tid: 13:15 (11:15 UTC)

Varsel

Denne rapporten ble laget for 6 timer og 12 minutter siden, klokken 05:03 UTC
Varsel gyldig fra 19. klokken 06 UTC til 20. klokken 06 UTC
Vind 9 kt fra Vest-nordvest
Sikt 10 km eller mer
Få skyer i en høyde av 2000 ft

TAF: EKBI 190503Z 1906/2006 29009KT 9999 FEW020

Værobservasjoner og værvarsel for over 4000 flyplasser (METAR- og TAF-rapporter).

Tilgjengelige stasjoner er representert av de røde og gule prikkene på kartet.

Hold musepekeren over prikken for å se navnet på stasjonen.

Klikk så for å se værobservasjoner og -varsler.

For å forandre kartet kan du klikke på den grønne knappen med svart kryss for å zoome inn, på den grønne knappen med strek for å zoome ut, eller på de grønne pilene for å se tilstøtende kart.


METAR-TAF: